Littlefork, Minnesota
Current Conditions -  °F | °C
As of 11:55 AM on Saturday 25 Oct 2014 (Local Time) from KINL Reporting Station
Clear Clear  
Wind Chill: 51°   Ceiling: Unl
Heat Index: 51°   Visibility: 10mi
Dew Point: 31°   Wind: 17mph
Humidity: 46%   Direction: 290°WNW
Pressure: 29.89"   Gusts: 31mph
Location:  48.4°N, 93.56°W
Report Text: KINL 251655Z AUTO 29015G27KT 10SM CLR 11/M01 A2989 RMK AO2 PK WND 31029/1645 SLP128 T01061006
Loading
Personal Weather Stations






























Interactive Weather Map
Tropical Storm Tracking
New forecast layout! Learn more

10-Day Weather Forecast

Advertisements
Track Severe Weather on mobile